createdAt,value
2019-03-08T00:01:01.978Z,0.90
2019-03-08T00:03:49.280Z,0.77
2019-03-08T00:06:36.814Z,1.03
2019-03-08T00:09:24.448Z,0.90
2019-03-08T00:12:11.959Z,1.00
2019-03-08T00:14:59.373Z,1.10
2019-03-08T00:17:47.018Z,1.00
2019-03-08T00:20:34.800Z,0.80
2019-03-08T00:23:22.401Z,1.10
2019-03-08T00:26:10.040Z,1.00
2019-03-08T00:28:57.637Z,1.00
2019-03-08T00:31:45.129Z,0.80
2019-03-08T00:34:32.548Z,1.03
2019-03-08T00:37:20.197Z,1.20
2019-03-08T00:40:10.352Z,1.50
2019-03-08T00:42:58.036Z,1.00
2019-03-08T00:45:45.692Z,0.93
2019-03-08T00:48:33.351Z,1.20
2019-03-08T00:51:21.076Z,1.00
2019-03-08T00:54:08.889Z,0.93
2019-03-08T00:56:56.706Z,0.90
2019-03-08T00:59:44.417Z,0.80
2019-03-08T01:02:31.864Z,1.07
2019-03-08T01:05:19.502Z,1.10
2019-03-08T01:08:07.248Z,1.20
2019-03-08T01:10:54.723Z,0.80
2019-03-08T01:13:42.240Z,1.20
2019-03-08T01:16:30.092Z,1.30
2019-03-08T01:19:17.758Z,0.90
2019-03-08T01:22:05.430Z,1.10
2019-03-08T01:24:53.075Z,0.80
2019-03-08T01:27:59.378Z,1.10
2019-03-08T01:30:46.686Z,1.13
2019-03-08T01:33:34.227Z,1.00
2019-03-08T01:36:21.706Z,0.77
2019-03-08T01:39:09.300Z,1.10
2019-03-08T01:41:56.979Z,1.23
2019-03-08T01:44:44.616Z,1.43
2019-03-08T01:47:32.367Z,1.17
2019-03-08T01:50:20.052Z,1.03
2019-03-08T01:53:07.701Z,0.87
2019-03-08T01:55:55.100Z,0.80
2019-03-08T01:58:43.096Z,1.10
2019-03-08T02:01:30.448Z,1.00
2019-03-08T02:04:17.984Z,0.80
2019-03-08T02:07:05.729Z,1.43
2019-03-08T02:09:53.260Z,0.90
2019-03-08T02:12:42.125Z,1.17
2019-03-08T02:15:29.641Z,0.93
2019-03-08T02:18:17.045Z,1.00
2019-03-08T02:21:07.121Z,1.10
2019-03-08T02:23:53.565Z,1.20
2019-03-08T02:26:41.296Z,0.90
2019-03-08T02:29:29.123Z,0.93
2019-03-08T02:32:16.748Z,0.70
2019-03-08T02:35:05.666Z,0.90
2019-03-08T02:37:53.067Z,0.73
2019-03-08T02:40:40.840Z,0.77
2019-03-08T02:43:28.403Z,1.30
2019-03-08T02:46:16.127Z,1.00
2019-03-08T02:49:03.776Z,0.90
2019-03-08T02:51:51.535Z,1.10
2019-03-08T02:54:39.177Z,1.07
2019-03-08T02:57:26.581Z,1.60
2019-03-08T03:00:16.222Z,1.80
2019-03-08T03:03:04.149Z,1.10
2019-03-08T03:05:51.577Z,1.10
2019-03-08T03:08:38.921Z,1.30
2019-03-08T03:11:26.582Z,1.20
2019-03-08T03:14:14.241Z,1.33
2019-03-08T03:17:01.701Z,1.10
2019-03-08T03:19:49.281Z,1.60
2019-03-08T03:22:36.709Z,1.63
2019-03-08T03:25:24.381Z,1.43
2019-03-08T03:28:12.039Z,1.60
2019-03-08T03:30:59.787Z,1.40
2019-03-08T03:33:47.536Z,1.73
2019-03-08T03:36:35.031Z,1.20
2019-03-08T03:39:22.412Z,1.10
2019-03-08T03:42:10.042Z,1.07
2019-03-08T03:44:58.180Z,1.03
2019-03-08T03:47:45.600Z,1.10
2019-03-08T03:50:33.206Z,1.00
2019-03-08T03:53:20.772Z,1.07
2019-03-08T03:56:08.285Z,1.00
2019-03-08T03:58:55.905Z,0.70
2019-03-08T04:01:45.057Z,0.80
2019-03-08T04:04:32.840Z,0.80
2019-03-08T04:07:20.542Z,0.60
2019-03-08T04:10:11.258Z,0.80
2019-03-08T04:12:58.891Z,1.23
2019-03-08T04:15:46.713Z,0.63
2019-03-08T04:18:34.465Z,0.80
2019-03-08T04:21:22.072Z,0.77
2019-03-08T04:24:09.424Z,0.90
2019-03-08T04:26:56.838Z,1.00
2019-03-08T04:29:44.252Z,1.03
2019-03-08T04:32:31.698Z,0.90
2019-03-08T04:35:19.120Z,0.93
2019-03-08T04:38:06.924Z,1.07
2019-03-08T04:40:54.624Z,1.03
2019-03-08T04:43:42.044Z,0.60
2019-03-08T04:46:29.697Z,0.83
2019-03-08T04:49:17.148Z,1.20
2019-03-08T04:52:04.633Z,1.00
2019-03-08T04:54:52.329Z,0.70
2019-03-08T04:57:40.060Z,0.90
2019-03-08T05:00:27.671Z,1.20
2019-03-08T05:03:15.348Z,1.20
2019-03-08T05:06:02.977Z,1.00
2019-03-08T05:08:50.757Z,0.70
2019-03-08T05:11:38.498Z,1.60
2019-03-08T05:14:25.901Z,0.90
2019-03-08T05:17:13.325Z,1.33
2019-03-08T05:20:01.082Z,1.50
2019-03-08T05:22:48.786Z,1.00
2019-03-08T05:25:36.540Z,2.13
2019-03-08T05:28:23.941Z,1.30
2019-03-08T05:31:11.549Z,1.00
2019-03-08T05:33:58.926Z,1.03
2019-03-08T05:36:46.645Z,0.80
2019-03-08T05:39:34.437Z,1.07
2019-03-08T05:42:21.778Z,1.10
2019-03-08T05:45:11.018Z,1.37
2019-03-08T05:47:58.683Z,1.33
2019-03-08T05:50:46.607Z,1.00
2019-03-08T05:53:34.227Z,1.17
2019-03-08T05:56:21.628Z,1.53
2019-03-08T05:59:09.253Z,1.40
2019-03-08T06:01:56.841Z,1.40
2019-03-08T06:04:44.313Z,1.10
2019-03-08T06:07:31.970Z,1.40
2019-03-08T06:10:33.360Z,1.60
2019-03-08T06:13:20.975Z,1.20
2019-03-08T06:16:08.320Z,1.30
2019-03-08T06:18:56.061Z,1.37
2019-03-08T06:21:44.089Z,1.40
2019-03-08T06:24:31.639Z,2.27
2019-03-08T06:27:18.904Z,1.33
2019-03-08T06:30:09.049Z,1.50
2019-03-08T06:32:56.865Z,1.60
2019-03-08T06:35:44.166Z,1.47
2019-03-08T06:38:31.721Z,1.10
2019-03-08T06:41:19.477Z,1.50
2019-03-08T06:44:07.209Z,1.43
2019-03-08T06:46:55.104Z,1.60
2019-03-08T06:49:42.533Z,1.20
2019-03-08T06:52:29.956Z,1.50
2019-03-08T06:55:17.930Z,1.50
2019-03-08T06:58:05.414Z,1.87
2019-03-08T07:00:54.780Z,1.77
2019-03-08T07:03:42.371Z,1.50
2019-03-08T07:06:30.042Z,1.23
2019-03-08T07:09:17.479Z,1.40
2019-03-08T07:12:05.033Z,1.50
2019-03-08T07:14:52.537Z,1.40
2019-03-08T07:17:40.172Z,1.43
2019-03-08T07:20:39.900Z,1.40
2019-03-08T07:23:41.141Z,1.30
2019-03-08T07:26:45.520Z,1.20
2019-03-08T07:29:34.561Z,1.10
2019-03-08T07:32:29.656Z,1.30
2019-03-08T07:35:18.676Z,1.50
2019-03-08T07:38:10.644Z,1.30
2019-03-08T07:41:09.309Z,1.60
2019-03-08T07:43:58.846Z,1.40
2019-03-08T07:46:59.769Z,1.40
2019-03-08T07:49:49.088Z,1.60
2019-03-08T07:52:44.558Z,1.40
2019-03-08T07:55:33.519Z,1.50
2019-03-08T07:58:25.663Z,1.40
2019-03-08T08:01:17.837Z,1.70
2019-03-08T08:04:21.929Z,1.10
2019-03-08T08:07:10.913Z,1.40
2019-03-08T08:10:02.900Z,1.50
2019-03-08T08:13:07.373Z,1.30
2019-03-08T08:16:14.571Z,1.20
2019-03-08T08:19:06.716Z,1.33
2019-03-08T08:21:59.198Z,1.40
2019-03-08T08:24:48.466Z,1.20
2019-03-08T08:27:38.277Z,1.10
2019-03-08T08:30:46.019Z,1.20
2019-03-08T08:33:37.837Z,1.60
2019-03-08T08:36:36.037Z,1.13
2019-03-08T08:39:25.379Z,1.43
2019-03-08T08:42:17.508Z,1.23
2019-03-08T08:45:22.165Z,1.00
2019-03-08T08:48:15.154Z,1.57
2019-03-08T08:51:10.641Z,1.30
2019-03-08T08:54:16.123Z,1.43
2019-03-08T08:57:08.026Z,1.50
2019-03-08T08:59:57.140Z,1.27
2019-03-08T09:02:52.845Z,1.40
2019-03-08T09:05:41.753Z,1.27
2019-03-08T09:08:30.954Z,1.50
2019-03-08T09:11:20.225Z,1.40
2019-03-08T09:14:15.342Z,2.93
2019-03-08T09:17:13.961Z,1.50
2019-03-08T09:20:03.361Z,1.20
2019-03-08T09:22:52.320Z,1.57
2019-03-08T09:25:50.588Z,1.70
2019-03-08T09:28:39.670Z,1.33
2019-03-08T09:31:40.366Z,1.37
2019-03-08T09:34:44.894Z,1.70
2019-03-08T09:37:37.459Z,1.47
2019-03-08T09:40:29.581Z,1.40
2019-03-08T09:43:35.200Z,1.47
2019-03-08T09:46:33.399Z,1.40
2019-03-08T09:49:25.905Z,1.20
2019-03-08T09:52:32.451Z,1.30
2019-03-08T09:55:30.661Z,1.10
2019-03-08T09:58:19.756Z,1.17
2019-03-08T10:01:16.686Z,1.77
2019-03-08T10:04:03.298Z,1.00
2019-03-08T10:06:55.421Z,1.43
2019-03-08T10:09:44.902Z,1.30
2019-03-08T10:12:50.330Z,1.30
2019-03-08T10:15:39.491Z,1.37
2019-03-08T10:18:31.831Z,1.37
2019-03-08T10:21:33.121Z,1.40
2019-03-08T10:24:22.517Z,1.57
2019-03-08T10:27:23.562Z,1.03
2019-03-08T10:30:13.561Z,1.23
2019-03-08T10:33:18.917Z,1.27
2019-03-08T10:36:08.221Z,1.50
2019-03-08T10:39:03.263Z,1.47
2019-03-08T10:42:08.533Z,1.37
2019-03-08T10:44:57.715Z,1.23
2019-03-08T10:48:05.009Z,1.53
2019-03-08T10:50:54.752Z,1.40
2019-03-08T10:54:00.745Z,1.30
2019-03-08T10:57:01.144Z,1.20
2019-03-08T10:59:59.028Z,1.30
2019-03-08T11:03:00.705Z,1.40
2019-03-08T11:05:50.005Z,1.13
2019-03-08T11:08:39.356Z,1.40
2019-03-08T11:11:40.604Z,1.77
2019-03-08T11:14:39.093Z,1.30
2019-03-08T11:17:28.369Z,1.60
2019-03-08T11:20:17.405Z,1.30
2019-03-08T11:23:24.495Z,1.27
2019-03-08T11:26:16.547Z,1.23
2019-03-08T11:29:05.833Z,1.20
2019-03-08T11:32:11.404Z,1.30
2019-03-08T11:35:01.081Z,1.40
2019-03-08T11:37:53.258Z,1.30
2019-03-08T11:40:42.571Z,1.47
2019-03-08T11:43:31.874Z,1.63
2019-03-08T11:46:21.279Z,1.53
2019-03-08T11:49:22.485Z,1.30
2019-03-08T11:52:11.572Z,1.40
2019-03-08T11:55:17.320Z,1.50
2019-03-08T11:58:21.601Z,1.70
2019-03-08T12:01:10.729Z,1.50
2019-03-08T12:04:00.189Z,1.50
2019-03-08T12:06:56.063Z,1.47
2019-03-08T12:09:45.113Z,1.73
2019-03-08T12:12:40.572Z,1.90
2019-03-08T12:15:30.322Z,1.60
2019-03-08T12:18:35.828Z,1.40
2019-03-08T12:21:41.496Z,1.33
2019-03-08T12:24:30.650Z,1.30
2019-03-08T12:27:25.653Z,1.43
2019-03-08T12:30:31.437Z,1.47
2019-03-08T12:33:20.930Z,1.67
2019-03-08T12:36:27.901Z,1.60
2019-03-08T12:39:20.057Z,1.50
2019-03-08T12:42:26.062Z,1.47
2019-03-08T12:45:31.365Z,1.87
2019-03-08T12:48:23.948Z,1.47
2019-03-08T12:51:28.280Z,1.50
2019-03-08T12:54:29.436Z,1.20
2019-03-08T12:57:21.511Z,1.23
2019-03-08T13:00:30.924Z,1.33
2019-03-08T13:03:26.436Z,1.40
2019-03-08T13:06:30.929Z,1.40
2019-03-08T13:09:29.458Z,1.33
2019-03-08T13:12:16.869Z,1.80
2019-03-08T13:15:07.552Z,1.47
2019-03-08T13:17:55.253Z,1.20
2019-03-08T13:20:42.766Z,1.50
2019-03-08T13:23:30.208Z,1.50
2019-03-08T13:26:17.958Z,1.10
2019-03-08T13:29:05.846Z,1.90
2019-03-08T13:31:53.472Z,1.30
2019-03-08T13:34:41.224Z,1.43
2019-03-08T13:37:28.841Z,1.40
2019-03-08T13:40:16.988Z,1.90
2019-03-08T13:43:04.727Z,2.00
2019-03-08T13:45:52.508Z,1.70
2019-03-08T13:48:40.040Z,1.50
2019-03-08T13:51:27.741Z,1.63
2019-03-08T13:54:15.670Z,1.70
2019-03-08T13:57:03.055Z,1.90
2019-03-08T13:59:50.769Z,1.63
2019-03-08T14:02:38.315Z,2.00
2019-03-08T14:05:25.973Z,1.80
2019-03-08T14:08:13.519Z,1.97
2019-03-08T14:11:01.052Z,1.70
2019-03-08T14:13:48.600Z,1.73
2019-03-08T14:16:36.293Z,1.63
2019-03-08T14:19:24.038Z,1.80
2019-03-08T14:22:11.897Z,1.60
2019-03-08T14:24:59.536Z,1.40
2019-03-08T14:27:46.994Z,1.20
2019-03-08T14:30:39.237Z,1.50
2019-03-08T14:33:27.373Z,1.53
2019-03-08T14:36:15.276Z,1.50
2019-03-08T14:39:07.531Z,1.30
2019-03-08T14:41:58.120Z,1.40
2019-03-08T14:44:53.668Z,1.50
2019-03-08T14:47:41.185Z,1.70
2019-03-08T14:50:31.869Z,1.40
2019-03-08T14:53:17.974Z,1.73
2019-03-08T14:56:05.437Z,1.37
2019-03-08T14:58:53.124Z,1.70
2019-03-08T15:01:41.358Z,1.50
2019-03-08T15:04:32.743Z,1.57
2019-03-08T15:07:18.230Z,1.93
2019-03-08T15:10:11.701Z,1.80
2019-03-08T15:12:59.148Z,1.50
2019-03-08T15:15:46.734Z,1.30
2019-03-08T15:18:34.592Z,1.20
2019-03-08T15:21:22.193Z,1.23
2019-03-08T15:24:09.948Z,1.47
2019-03-08T15:26:57.495Z,4.23
2019-03-08T15:29:54.035Z,7.67
2019-03-08T15:32:34.398Z,3.03
2019-03-08T15:35:22.308Z,1.37
2019-03-08T15:38:10.167Z,1.03
2019-03-08T15:40:57.704Z,1.60
2019-03-08T15:43:46.893Z,1.27
2019-03-08T15:46:37.645Z,1.70
2019-03-08T15:49:26.655Z,0.90
2019-03-08T15:52:14.663Z,0.80
2019-03-08T15:55:02.362Z,1.13
2019-03-08T15:57:50.075Z,1.40
2019-03-08T16:00:37.901Z,1.10
2019-03-08T16:03:25.329Z,1.00
2019-03-08T16:06:12.993Z,1.00
2019-03-08T16:09:04.010Z,1.30
2019-03-08T16:11:51.705Z,1.67
2019-03-08T16:14:42.185Z,1.50
2019-03-08T16:17:30.310Z,1.70
2019-03-08T16:20:20.377Z,1.50
2019-03-08T16:23:08.552Z,1.60
2019-03-08T16:26:04.013Z,2.33
2019-03-08T16:28:51.260Z,1.63
2019-03-08T16:31:40.542Z,1.60
2019-03-08T16:34:27.832Z,2.40
2019-03-08T16:37:21.485Z,1.70
2019-03-08T16:40:28.384Z,1.97
2019-03-08T16:43:18.299Z,1.93
2019-03-08T16:46:16.572Z,1.80
2019-03-08T16:49:22.073Z,2.00
2019-03-08T16:52:29.304Z,1.90
2019-03-08T16:55:26.433Z,2.40
2019-03-08T16:58:15.812Z,2.00
2019-03-08T17:01:04.981Z,2.23
2019-03-08T17:04:06.397Z,2.30
2019-03-08T17:07:01.582Z,2.00
2019-03-08T17:09:50.896Z,1.60
2019-03-08T17:12:46.123Z,1.70
2019-03-08T17:15:44.103Z,2.20
2019-03-08T17:18:39.761Z,2.80
2019-03-08T17:21:28.784Z,2.23
2019-03-08T17:24:21.233Z,2.00
2019-03-08T17:27:12.769Z,1.70
2019-03-08T17:30:02.365Z,2.30
2019-03-08T17:33:01.869Z,2.53
2019-03-08T17:35:59.805Z,2.30
2019-03-08T17:38:55.080Z,2.03
2019-03-08T17:41:47.646Z,1.70
2019-03-08T17:44:52.296Z,2.00
2019-03-08T17:47:44.561Z,2.53
2019-03-08T17:50:42.807Z,2.03
2019-03-08T17:53:44.024Z,2.27
2019-03-08T17:56:39.068Z,1.73
2019-03-08T17:59:29.009Z,1.97
2019-03-08T18:02:27.387Z,1.63
2019-03-08T18:05:19.780Z,1.63
2019-03-08T18:08:14.828Z,1.57
2019-03-08T18:11:04.011Z,2.00
2019-03-08T18:13:53.153Z,2.00
2019-03-08T18:16:48.132Z,2.27
2019-03-08T18:19:46.333Z,2.13
2019-03-08T18:22:38.641Z,2.07
2019-03-08T18:25:34.180Z,2.13
2019-03-08T18:28:28.409Z,2.50
2019-03-08T18:31:20.811Z,2.20
2019-03-08T18:34:18.820Z,2.30
2019-03-08T18:37:23.745Z,2.00
2019-03-08T18:40:28.245Z,2.00
2019-03-08T18:43:33.579Z,2.33
2019-03-08T18:46:22.852Z,2.30
2019-03-08T18:49:30.323Z,2.50
2019-03-08T18:52:31.609Z,2.23
2019-03-08T18:55:26.622Z,2.43
2019-03-08T18:58:15.730Z,2.13
2019-03-08T19:01:19.452Z,2.23
2019-03-08T19:04:17.249Z,2.73
2019-03-08T19:07:12.608Z,2.50
2019-03-08T19:10:16.744Z,3.00
2019-03-08T19:13:06.493Z,3.17
2019-03-08T19:16:04.233Z,3.33
2019-03-08T19:19:02.368Z,3.17
2019-03-08T19:21:57.434Z,2.90
2019-03-08T19:24:46.880Z,2.70
2019-03-08T19:27:36.100Z,3.10
2019-03-08T19:30:28.072Z,2.63
2019-03-08T19:33:20.062Z,2.67
2019-03-08T19:36:11.834Z,2.63
2019-03-08T19:39:01.395Z,2.87
2019-03-08T19:41:56.853Z,2.83
2019-03-08T19:44:58.198Z,2.80
2019-03-08T19:47:57.017Z,2.83
2019-03-08T19:51:02.679Z,2.93
2019-03-08T19:54:03.849Z,2.00
2019-03-08T19:56:53.020Z,2.67
2019-03-08T19:59:42.501Z,3.47
2019-03-08T20:02:46.934Z,2.77
2019-03-08T20:05:38.952Z,2.73
2019-03-08T20:08:28.724Z,2.33
2019-03-08T20:11:33.035Z,2.50
2019-03-08T20:14:22.313Z,2.33
2019-03-08T20:17:20.588Z,2.33
2019-03-08T20:20:32.721Z,1.97
2019-03-08T20:23:27.785Z,1.80
2019-03-08T20:26:32.116Z,1.90
2019-03-08T20:29:37.349Z,2.23
2019-03-08T20:32:26.453Z,2.40
2019-03-08T20:35:16.208Z,2.37
2019-03-08T20:38:05.521Z,2.37
2019-03-08T20:41:06.504Z,2.37
2019-03-08T20:43:55.469Z,2.37
2019-03-08T20:46:44.767Z,2.63
2019-03-08T20:49:32.342Z,2.27
2019-03-08T20:52:20.022Z,2.40
2019-03-08T20:55:09.999Z,2.30
2019-03-08T20:57:57.653Z,2.10
2019-03-08T21:00:45.373Z,2.63
2019-03-08T21:03:33.245Z,2.40
2019-03-08T21:06:20.774Z,3.50
2019-03-08T21:09:09.080Z,3.63
2019-03-08T21:11:56.981Z,3.50
2019-03-08T21:14:44.680Z,3.50
2019-03-08T21:17:32.469Z,3.10
2019-03-08T21:20:19.915Z,3.57
2019-03-08T21:23:07.569Z,3.00
2019-03-08T21:25:55.017Z,3.00
2019-03-08T21:28:42.875Z,2.97
2019-03-08T21:31:30.356Z,2.77
2019-03-08T21:34:17.777Z,3.00
2019-03-08T21:37:05.536Z,2.77
2019-03-08T21:39:52.961Z,2.40
2019-03-08T21:42:40.680Z,2.90
2019-03-08T21:45:28.080Z,2.40
2019-03-08T21:48:16.117Z,2.40
2019-03-08T21:51:03.807Z,2.47
2019-03-08T21:53:51.530Z,2.60
2019-03-08T21:56:39.255Z,3.07
2019-03-08T21:59:26.765Z,2.87
2019-03-08T22:02:14.421Z,2.80
2019-03-08T22:05:02.342Z,2.57
2019-03-08T22:07:49.752Z,3.07
2019-03-08T22:10:41.437Z,2.73
2019-03-08T22:13:28.780Z,2.67
2019-03-08T22:16:16.357Z,2.33
2019-03-08T22:19:03.713Z,2.70
2019-03-08T22:21:51.221Z,2.90
2019-03-08T22:24:38.629Z,2.60
2019-03-08T22:27:26.300Z,3.07
2019-03-08T22:30:18.177Z,2.83
2019-03-08T22:33:05.597Z,2.57
2019-03-08T22:35:53.569Z,2.63
2019-03-08T22:38:41.186Z,2.60
2019-03-08T22:41:28.837Z,3.00
2019-03-08T22:44:16.616Z,2.77
2019-03-08T22:47:04.165Z,2.80
2019-03-08T22:49:51.898Z,2.43
2019-03-08T22:52:39.541Z,2.30
2019-03-08T22:55:27.264Z,2.13
2019-03-08T22:58:14.639Z,2.67
2019-03-08T23:01:07.422Z,3.53
2019-03-08T23:03:54.852Z,3.50
2019-03-08T23:06:42.328Z,2.30
2019-03-08T23:09:30.063Z,2.00
2019-03-08T23:12:17.437Z,2.10
2019-03-08T23:15:07.691Z,1.90
2019-03-08T23:17:55.545Z,2.10
2019-03-08T23:20:43.156Z,2.03
2019-03-08T23:23:31.070Z,2.53
2019-03-08T23:26:18.420Z,2.27
2019-03-08T23:29:07.711Z,1.83
2019-03-08T23:32:02.749Z,1.97
2019-03-08T23:34:50.411Z,2.57
2019-03-08T23:37:38.281Z,2.00
2019-03-08T23:40:25.868Z,2.20
2019-03-08T23:43:13.293Z,2.43
2019-03-08T23:46:00.761Z,2.20
2019-03-08T23:48:48.412Z,2.17
2019-03-08T23:51:35.841Z,2.07
2019-03-08T23:54:23.401Z,1.90
2019-03-08T23:57:11.165Z,1.70
2019-03-08T23:59:58.552Z,2.07
